Time;durP1;ratioP1;P1;durP2;ratioP2;P2;SDS_P1;SDS_P2;PMS_P1;PMS_P2;Temp;Humidity;BMP_temperature;BMP_pressure;BME280_temperature;BME280_humidity;BME280_pressure;Samples;Min_cycle;Max_cycle;Signal;HPM_P1;HPM_P2
2020/12/27 00:01:30;;;;;;;18.20;8.30;;;;;;;-1.79;75.98;100147.28;4955196;28;20489;-73
2020/12/27 00:03:58;;;;;;;;;;;;;;;-1.78;76.13;100147.41;4955317;29;20047;-74
2020/12/27 00:06:27;;;;;;;18.08;8.35;;;;;;;-1.80;75.84;100143.94;4955108;28;20296;-74
2020/12/27 00:08:55;;;;;;;22.15;8.93;;;;;;;-1.79;75.96;100140.66;4955080;28;20099;-74
2020/12/27 00:11:22;;;;;;;20.02;9.20;;;;;;;-1.84;75.72;100139.53;4954619;28;20059;-75
2020/12/27 00:13:51;;;;;;;16.88;8.45;;;;;;;-1.92;76.00;100150.75;4954788;28;20051;-74
2020/12/27 00:16:23;;;;;;;16.83;8.80;;;;;;;-1.95;75.63;100150.59;4954381;28;20094;-74
2020/12/27 00:18:53;;;;;;;19.13;9.50;;;;;;;-2.12;75.40;100149.66;4953874;29;20047;-74
2020/12/27 00:21:20;;;;;;;18.17;8.85;;;;;;;-2.40;76.15;100148.00;4969818;28;20489;-75
2020/12/27 00:23:48;;;;;;;20.40;9.23;;;;;;;-2.30;76.05;100150.22;4954630;28;20497;-74
2020/12/27 00:26:17;;;;;;;24.10;11.25;;;;;;;-2.23;76.37;100152.31;4954906;28;20043;-75
2020/12/27 00:28:45;;;;;;;22.60;9.85;;;;;;;-2.30;76.36;100140.22;4954803;28;20043;-75
2020/12/27 00:31:17;;;;;;;23.10;9.82;;;;;;;-2.19;76.79;100136.72;4957085;28;20071;-75
2020/12/27 00:33:46;;;;;;;19.20;9.43;;;;;;;-2.19;76.21;100125.09;4973013;28;20126;-75
2020/12/27 00:36:18;;;;;;;26.85;10.38;;;;;;;-2.57;76.56;100109.56;4957988;28;20110;-74
2020/12/27 00:38:47;;;;;;;20.92;9.55;;;;;;;-2.61;76.98;100104.28;4958246;28;20043;-74
2020/12/27 00:41:21;;;;;;;21.17;9.60;;;;;;;-2.73;76.47;100110.28;4957856;28;20047;-75
2020/12/27 00:43:52;;;;;;;21.73;9.88;;;;;;;-2.60;76.45;100103.50;4957848;29;20408;-75
2020/12/27 00:46:21;;;;;;;;;;;;;;;-2.48;76.90;100104.22;4958416;28;20063;-75
2020/12/27 00:48:49;;;;;;;15.05;8.10;;;;;;;-2.64;76.12;100089.13;4954491;28;19923;-75
2020/12/27 00:51:20;;;;;;;14.57;7.95;;;;;;;-2.82;76.76;100102.28;4957593;29;20099;-75
2020/12/27 00:53:49;;;;;;;19.45;8.95;;;;;;;-2.75;77.24;100114.34;4956435;29;20141;-75
2020/12/27 00:56:17;;;;;;;19.25;8.13;;;;;;;-2.73;76.61;100109.41;4954994;28;20048;-76
2020/12/27 00:58:49;;;;;;;19.88;9.40;;;;;;;-2.60;76.99;100118.50;4955557;28;20428;-75
2020/12/27 01:01:18;;;;;;;20.92;9.48;;;;;;;-2.60;77.20;100123.50;4974592;28;20055;-75
2020/12/27 01:03:48;;;;;;;20.55;9.63;;;;;;;-2.69;76.56;100132.97;4952000;28;20484;-75
2020/12/27 01:06:22;;;;;;;21.80;9.90;;;;;;;-2.67;77.32;100128.91;4971799;28;20062;-78
2020/12/27 01:08:54;;;;;;;18.95;9.50;;;;;;;-2.73;77.15;100126.91;4953832;28;20051;-75
2020/12/27 01:11:23;;;;;;;23.70;10.88;;;;;;;-2.94;76.78;100130.66;4976736;28;20051;-75
2020/12/27 01:13:53;;;;;;;20.45;10.88;;;;;;;-3.07;77.51;100133.19;4958684;28;20145;-76
2020/12/27 01:16:21;;;;;;;25.98;11.55;;;;;;;-2.93;77.65;100133.22;4976945;28;20047;-75
2020/12/27 01:18:51;;;;;;;23.95;10.95;;;;;;;-2.93;77.03;100123.22;4955994;28;20043;-77
2020/12/27 01:21:27;;;;;;;21.67;11.10;;;;;;;-3.01;77.57;100124.44;4956863;28;20042;-76
2020/12/27 01:24:02;;;;;;;23.38;10.65;;;;;;;-3.03;77.32;100121.00;4925476;28;20042;-76
2020/12/27 01:26:35;;;;;;;19.27;9.32;;;;;;;-2.95;77.25;100098.97;4971284;28;20043;-75
2020/12/27 01:29:04;;;;;;;22.90;10.73;;;;;;;-3.07;76.79;100104.09;4972767;28;20046;-76
2020/12/27 01:31:34;;;;;;;23.02;10.10;;;;;;;-3.07;77.50;100101.59;4974426;28;20101;-75
2020/12/27 01:34:11;;;;;;;21.25;9.10;;;;;;;-2.90;77.34;100097.59;4952159;28;20039;-76
2020/12/27 01:36:42;;;;;;;14.77;6.57;;;;;;;-3.14;76.88;100093.69;4973297;28;20485;-77
2020/12/27 01:39:19;;;;;;;;;;;;;;;-3.11;77.54;100084.72;4971042;28;20047;-76
2020/12/27 01:41:48;;;;;;;22.63;8.48;;;;;;;-3.00;77.07;100086.19;4959209;28;19954;-75
2020/12/27 01:44:23;;;;;;;19.55;8.57;;;;;;;-2.87;77.02;100087.78;4958148;28;20409;-76
2020/12/27 01:46:54;;;;;;;19.52;7.93;;;;;;;-2.96;76.90;100083.13;4958947;28;20055;-75
2020/12/27 01:49:32;;;;;;;15.70;7.00;;;;;;;-2.95;77.36;100074.84;4958593;28;20081;-76
2020/12/27 01:52:01;;;;;;;;;;;;;;;-2.87;77.50;100068.69;4959203;28;20046;-76
2020/12/27 01:54:32;;;;;;;19.60;7.75;;;;;;;-2.83;77.47;100065.59;4975899;28;19922;-76
2020/12/27 01:57:12;;;;;;;18.23;8.02;;;;;;;-2.88;76.97;100059.47;4975942;28;20051;-75
2020/12/27 01:59:47;;;;;;;19.25;8.73;;;;;;;-3.18;77.33;100069.28;4975603;28;20512;-76
2020/12/27 02:02:35;;;;;;;16.10;7.95;;;;;;;-3.16;77.90;100062.75;4975800;28;20493;-76
2020/12/27 02:05:12;;;;;;;16.70;8.32;;;;;;;-3.05;77.81;100062.63;4955035;29;20072;-75
2020/12/27 02:07:45;;;;;;;16.98;8.23;;;;;;;-3.16;77.47;100050.28;4955727;29;20046;-75
2020/12/27 02:10:24;;;;;;;16.38;8.02;;;;;;;-3.14;77.27;100041.28;4956439;29;20062;-76
2020/12/27 02:12:52;;;;;;;16.65;8.02;;;;;;;-3.29;77.47;100046.22;4955000;29;20048;-75
2020/12/27 02:15:20;;;;;;;22.83;9.27;;;;;;;-3.37;77.37;100042.38;4956047;29;20066;-75
2020/12/27 02:18:08;;;;;;;21.83;8.85;;;;;;;-3.32;78.21;100036.03;4931392;29;20055;-75
2020/12/27 02:20:40;;;;;;;19.23;9.20;;;;;;;-3.19;77.39;100027.66;4955572;29;20121;-76
2020/12/27 02:23:15;;;;;;;21.27;10.23;;;;;;;-3.41;77.45;100036.34;4954969;29;20063;-76
2020/12/27 02:25:47;;;;;;;20.48;8.68;;;;;;;-3.40;77.52;100043.06;4956085;29;20054;-75
2020/12/27 02:28:23;;;;;;;18.52;8.93;;;;;;;-3.21;77.68;100035.03;4955010;29;20448;-76
2020/12/27 02:30:56;;;;;;;19.20;8.82;;;;;;;-3.15;78.16;100022.94;4955808;29;20102;-76
2020/12/27 02:33:24;;;;;;;21.35;9.50;;;;;;;-3.16;77.44;100028.69;4954744;29;20047;-75
2020/12/27 02:36:12;;;;;;;23.58;10.18;;;;;;;-3.33;77.72;100034.31;4955877;29;20059;-76
2020/12/27 02:38:42;;;;;;;26.65;10.10;;;;;;;-3.40;78.16;100022.25;4955768;29;20066;-76
2020/12/27 02:41:16;;;;;;;21.02;9.95;;;;;;;-3.25;78.33;100020.66;4955647;29;20058;-76
2020/12/27 02:43:58;;;;;;;17.38;9.23;;;;;;;-3.63;78.25;100027.50;4954774;29;20062;-76
2020/12/27 02:46:28;;;;;;;16.85;7.38;;;;;;;-3.60;78.16;100017.72;4954680;29;20055;-76
2020/12/27 02:49:16;;;;;;;16.35;8.15;;;;;;;-3.63;77.89;100012.53;4955433;29;20051;-75
2020/12/27 02:51:44;;;;;;;16.70;8.73;;;;;;;-3.47;77.95;100010.19;4954353;29;20074;-76
2020/12/27 02:54:34;;;;;;;17.85;8.23;;;;;;;-3.44;77.88;100005.38;4859402;29;20045;-75
2020/12/27 02:57:09;;;;;;;15.15;7.88;;;;;;;-3.62;78.56;100001.78;4859286;29;20056;-76
2020/12/27 02:59:37;;;;;;;15.40;8.10;;;;;;;-3.45;78.34;99998.66;4859315;29;20081;-76
2020/12/27 03:02:25;;;;;;;14.95;7.60;;;;;;;-3.56;78.31;99994.69;4859352;29;20049;-76
2020/12/27 03:05:09;;;;;;;15.27;7.60;;;;;;;-3.48;78.32;99988.53;4872044;29;20049;-75
2020/12/27 03:07:38;;;;;;;18.08;8.60;;;;;;;-3.56;78.02;99978.09;4878326;29;20116;-76
2020/12/27 03:10:13;;;;;;;19.08;8.05;;;;;;;-3.59;78.11;99974.53;4877739;29;20045;-76
2020/12/27 03:12:47;;;;;;;16.67;8.13;;;;;;;-3.42;78.55;99978.91;4877539;29;20154;-76
2020/12/27 03:15:20;;;;;;;13.40;6.55;;;;;;;-3.26;77.89;99975.69;4877586;29;20143;-76
2020/12/27 03:17:53;;;;;;;15.30;6.97;;;;;;;-3.26;77.88;99956.56;4877741;29;20511;-76
2020/12/27 03:20:40;;;;;;;11.93;6.20;;;;;;;-3.31;77.84;99962.06;4877838;29;20048;-76
2020/12/27 03:23:11;;;;;;;12.10;5.60;;;;;;;-3.28;77.90;99960.59;4893010;29;20045;-76
2020/12/27 03:25:43;;;;;;;9.88;5.15;;;;;;;-3.26;77.97;99963.19;4877714;29;20055;-76
2020/12/27 03:28:13;;;;;;;11.85;5.97;;;;;;;-3.20;77.83;99956.91;4877571;29;20496;-76
2020/12/27 03:30:45;;;;;;;10.60;4.57;;;;;;;-3.19;77.73;99957.78;4888809;28;20057;-76
2020/12/27 03:33:23;;;;;;;10.32;5.47;;;;;;;-3.27;77.25;99951.47;4974307;28;20046;-76
2020/12/27 03:35:55;;;;;;;8.90;4.97;;;;;;;-3.35;77.20;99953.53;4974565;28;20047;-76
2020/12/27 03:38:25;;;;;;;11.05;5.32;;;;;;;-3.36;77.84;99961.81;4973235;28;20049;-76
2020/12/27 03:41:06;;;;;;;13.02;5.97;;;;;;;-3.28;77.33;99958.09;4974547;28;20046;-76
2020/12/27 03:43:46;;;;;;;11.98;5.28;;;;;;;-3.18;77.44;99947.88;4974479;28;20497;-76
2020/12/27 03:46:22;;;;;;;11.45;5.80;;;;;;;-3.22;77.79;99948.50;4973211;28;20117;-76
2020/12/27 03:49:09;;;;;;;10.95;5.40;;;;;;;-3.28;77.28;99950.63;4974356;28;20077;-75
2020/12/27 03:51:49;;;;;;;10.27;5.30;;;;;;;-3.21;77.45;99940.22;4974180;28;20130;-76
2020/12/27 03:54:25;;;;;;;10.02;5.10;;;;;;;-3.23;77.50;99941.75;4973198;28;20125;-76
2020/12/27 03:57:13;;;;;;;12.55;5.43;;;;;;;-3.21;77.55;99936.84;4973949;28;20093;-75
2020/12/27 04:00:03;;;;;;;11.20;5.03;;;;;;;-3.21;77.30;99937.72;4973299;28;20082;-76
2020/12/27 04:02:48;;;;;;;11.20;5.30;;;;;;;-3.20;77.45;99934.47;4974389;28;20057;-76
2020/12/27 04:05:17;;;;;;;11.40;5.30;;;;;;;-3.19;77.72;99933.66;4959398;28;20066;-76
2020/12/27 04:07:47;;;;;;;11.88;5.43;;;;;;;-3.12;77.63;99924.91;4958750;29;20461;-76
2020/12/27 04:10:20;;;;;;;8.10;4.60;;;;;;;-3.14;77.50;99919.81;4958348;29;20051;-76
2020/12/27 04:12:49;;;;;;;9.63;4.85;;;;;;;-3.10;77.21;99928.34;4958523;29;20058;-76
2020/12/27 04:15:17;;;;;;;11.23;5.32;;;;;;;-3.13;77.63;99924.06;4956961;29;20054;-76
2020/12/27 04:18:00;;;;;;;13.73;5.43;;;;;;;-3.12;77.62;99925.75;4960242;28;20113;-76
2020/12/27 04:20:38;;;;;;;10.80;5.35;;;;;;;-3.15;77.52;99925.59;4960021;28;20066;-76
2020/12/27 04:23:06;;;;;;;12.65;5.22;;;;;;;-3.10;77.04;99928.34;4960396;28;20051;-76
2020/12/27 04:25:35;;;;;;;8.95;4.88;;;;;;;-3.14;77.56;99922.31;4977530;28;20074;-76
2020/12/27 04:28:03;;;;;;;11.50;4.85;;;;;;;-3.30;77.31;99924.72;4977699;28;20054;-76
2020/12/27 04:30:32;;;;;;;12.27;5.38;;;;;;;-3.19;76.96;99923.69;4960216;28;20484;-75
2020/12/27 04:33:18;;;;;;;9.82;4.70;;;;;;;-3.39;77.53;99909.25;4976182;28;20054;-75
2020/12/27 04:36:05;;;;;;;9.32;4.25;;;;;;;-3.50;77.09;99912.72;4977199;28;20054;-75
2020/12/27 04:38:33;;;;;;;12.60;5.73;;;;;;;-3.58;77.33;99898.97;4977212;28;20118;-75
2020/12/27 04:41:02;;;;;;;12.75;5.22;;;;;;;-3.47;76.95;99900.44;4976474;28;20078;-75
2020/12/27 04:43:30;;;;;;;14.32;5.80;;;;;;;-3.67;77.17;99905.94;4977295;28;20047;-75
2020/12/27 04:46:00;;;;;;;18.23;6.55;;;;;;;-3.59;77.16;99905.59;4977268;28;20042;-75
2020/12/27 04:48:36;;;;;;;17.48;6.43;;;;;;;-3.54;76.99;99908.34;4976169;28;20104;-75
2020/12/27 04:51:16;;;;;;;18.75;6.45;;;;;;;-3.56;76.86;99914.88;4977080;28;20051;-75
2020/12/27 04:53:51;;;;;;;16.95;6.75;;;;;;;-3.71;76.84;99899.88;4975774;28;20138;-74
2020/12/27 04:56:29;;;;;;;18.50;5.90;;;;;;;-3.82;77.06;99897.53;4957267;28;20097;-77
2020/12/27 04:58:59;;;;;;;20.40;7.63;;;;;;;-3.98;76.69;99903.22;4974759;28;20051;-76
2020/12/27 05:01:29;;;;;;;18.25;7.30;;;;;;;-3.87;77.23;99886.44;4942278;28;20090;-76
2020/12/27 05:04:00;;;;;;;17.45;7.28;;;;;;;-3.93;77.04;99886.06;4976042;28;20133;-78
2020/12/27 05:06:37;;;;;;;15.18;5.78;;;;;;;-4.05;77.06;99885.38;4973451;28;20117;-75
2020/12/27 05:09:10;;;;;;;14.10;6.65;;;;;;;-4.02;77.30;99875.56;4954764;28;20046;-75
2020/12/27 05:11:38;;;;;;;15.77;6.63;;;;;;;-4.20;76.96;99890.28;4958488;28;20572;-74
2020/12/27 05:14:13;;;;;;;15.63;6.80;;;;;;;-4.09;77.40;99890.16;4974830;28;20408;-75
2020/12/27 05:16:53;;;;;;;15.13;6.28;;;;;;;-4.23;77.21;99881.00;4972099;28;20050;-75
2020/12/27 05:19:25;;;;;;;15.27;6.40;;;;;;;-4.12;77.61;99870.03;4943608;28;20039;-75
2020/12/27 05:22:06;;;;;;;14.90;6.20;;;;;;;-4.33;77.20;99873.75;4943413;28;20066;-75
2020/12/27 05:24:51;;;;;;;18.45;6.97;;;;;;;-4.15;77.38;99864.84;4956674;28;20547;-74
2020/12/27 05:27:41;;;;;;;15.70;6.60;;;;;;;-4.19;77.54;99870.44;4973721;28;20656;-74
2020/12/27 05:30:26;;;;;;;12.23;5.88;;;;;;;-4.12;77.36;99860.06;4959000;28;20090;-75
2020/12/27 05:32:58;;;;;;;17.33;6.60;;;;;;;-4.07;77.16;99862.81;4976015;28;20130;-74
2020/12/27 05:35:44;;;;;;;15.38;6.00;;;;;;;-4.00;77.30;99851.56;4973303;28;20402;-75
2020/12/27 05:38:18;;;;;;;18.60;7.45;;;;;;;-4.06;76.80;99859.56;4972801;28;20050;-75
2020/12/27 05:41:06;;;;;;;12.00;4.90;;;;;;;-4.03;76.76;99858.91;4974437;28;20039;-75
2020/12/27 05:43:45;;;;;;;17.75;6.63;;;;;;;-3.93;76.94;99858.66;4976263;28;20046;-75
2020/12/27 05:46:18;;;;;;;17.23;5.75;;;;;;;-3.91;76.91;99859.63;4975908;28;20122;-75
2020/12/27 05:48:48;;;;;;;16.42;6.30;;;;;;;-3.88;76.86;99859.78;4976271;28;20125;-75
2020/12/27 05:51:21;;;;;;;10.18;4.55;;;;;;;-3.95;77.19;99855.22;4955565;28;20112;-76
2020/12/27 05:53:51;;;;;;;11.25;4.95;;;;;;;-3.93;77.30;99861.13;4941946;28;20191;-75
2020/12/27 05:56:30;;;;;;;10.52;4.80;;;;;;;-3.80;77.03;99854.47;4957119;28;20409;-76
2020/12/27 05:59:05;;;;;;;10.02;5.13;;;;;;;-3.77;77.28;99849.69;4956372;28;20050;-76
2020/12/27 06:01:38;;;;;;;10.38;5.00;;;;;;;-3.81;77.45;99844.41;4975199;28;20121;-75
2020/12/27 06:04:44;;;;;;;10.27;5.45;;;;;;;-3.75;77.07;99834.81;4975502;28;20081;-75
2020/12/27 06:07:33;;;;;;;10.20;4.25;;;;;;;-3.72;77.53;99827.50;4952327;28;20074;-76
2020/12/27 06:10:07;;;;;;;9.95;5.07;;;;;;;-3.73;77.80;99826.63;4973929;28;20046;-76
2020/12/27 06:13:00;;;;;;;9.48;4.43;;;;;;;-3.79;77.72;99822.94;4973958;28;20378;-76
2020/12/27 06:15:31;;;;;;;11.02;4.78;;;;;;;-3.81;77.36;99820.34;4971648;28;20058;-76
2020/12/27 06:18:09;;;;;;;11.57;4.97;;;;;;;-3.74;77.39;99819.09;4973986;28;20043;-76
2020/12/27 06:21:06;;;;;;;9.52;4.32;;;;;;;-3.75;77.16;99812.38;4974222;28;20488;-76
2020/12/27 06:23:37;;;;;;;10.02;5.00;;;;;;;-3.81;77.45;99812.00;4956692;28;20043;-76
2020/12/27 06:26:07;;;;;;;10.40;5.00;;;;;;;-3.76;77.63;99810.63;4973659;28;20043;-76
2020/12/27 06:28:41;;;;;;;12.57;5.30;;;;;;;-3.79;77.29;99808.00;4954916;28;20043;-76
2020/12/27 06:31:17;;;;;;;20.58;7.70;;;;;;;-3.78;77.71;99805.56;4971023;28;20051;-75
2020/12/27 06:34:05;;;;;;;25.23;8.02;;;;;;;-3.62;77.67;99794.81;4966242;28;20145;-75
2020/12/27 06:36:37;;;;;;;15.13;6.57;;;;;;;-3.60;77.39;99801.63;4972075;28;20448;-75
2020/12/27 06:39:17;;;;;;;14.77;6.38;;;;;;;-3.70;77.29;99793.53;4971303;28;20058;-76
2020/12/27 06:42:10;;;;;;;13.85;6.00;;;;;;;-3.68;77.05;99792.00;4953358;28;20047;-76
2020/12/27 06:44:47;;;;;;;11.23;4.82;;;;;;;-3.69;77.43;99792.75;4974097;28;20050;-75
2020/12/27 06:47:43;;;;;;;13.52;5.60;;;;;;;-3.68;77.65;99784.50;4973806;28;20133;-75
2020/12/27 06:50:15;;;;;;;15.50;6.35;;;;;;;-3.69;76.92;99777.78;4972048;28;20070;-76
2020/12/27 06:52:49;;;;;;;13.43;6.47;;;;;;;-3.77;77.43;99787.38;4951828;28;20408;-75
2020/12/27 06:55:26;;;;;;;13.27;5.97;;;;;;;-3.74;77.15;99786.69;4971165;28;20050;-76
2020/12/27 06:58:09;;;;;;;11.52;5.55;;;;;;;-3.62;77.55;99779.84;4972665;28;20054;-76
2020/12/27 07:00:40;;;;;;;12.95;6.70;;;;;;;-3.65;77.00;99784.69;4949535;28;20134;-75
2020/12/27 07:03:20;;;;;;;16.63;7.38;;;;;;;-3.62;76.84;99774.88;4954290;29;20126;-75
2020/12/27 07:05:50;;;;;;;11.10;6.47;;;;;;;-3.54;76.75;99763.69;4947874;28;20039;-75
2020/12/27 07:08:41;;;;;;;15.32;6.85;;;;;;;-3.51;76.74;99769.75;4943600;28;20053;-75
2020/12/27 07:11:16;;;;;;;16.15;6.53;;;;;;;-3.53;77.06;99770.41;4932273;29;20063;-74
2020/12/27 07:13:45;;;;;;;12.88;6.25;;;;;;;-3.52;76.82;99768.00;4931441;29;20051;-75
2020/12/27 07:16:16;;;;;;;12.70;6.03;;;;;;;-3.48;77.36;99774.03;4955213;29;20081;-75
2020/12/27 07:18:46;;;;;;;11.98;6.78;;;;;;;-3.42;77.03;99776.84;4937445;28;20055;-75
2020/12/27 07:21:17;;;;;;;18.35;7.47;;;;;;;-3.42;76.44;99779.34;4952457;29;20402;-75
2020/12/27 07:23:49;;;;;;;16.73;6.43;;;;;;;-3.38;76.73;99781.22;4943412;29;20512;-75
2020/12/27 07:26:16;;;;;;;14.32;5.38;;;;;;;-3.20;76.65;99776.41;4951534;29;20434;-75
2020/12/27 07:28:45;;;;;;;11.77;6.03;;;;;;;-2.93;76.37;99776.22;4953882;28;20066;-75
2020/12/27 07:31:19;;;;;;;11.23;6.15;;;;;;;-2.43;75.70;99778.03;4952711;29;20079;-75
2020/12/27 07:33:47;;;;;;;11.93;5.57;;;;;;;-2.35;75.14;99671.88;4955190;28;20075;-75
2020/12/27 07:36:15;;;;;;;11.93;5.88;;;;;;;0.11;72.50;99767.50;4937943;29;20100;-76
2020/12/27 07:38:59;;;;;;;13.25;6.03;;;;;;;0.95;68.50;99755.88;4943630;28;20094;-75
2020/12/27 07:41:30;;;;;;;11.10;5.72;;;;;;;-0.34;70.03;99766.41;4951671;29;20461;-76
2020/12/27 07:43:59;;;;;;;11.75;6.10;;;;;;;-1.28;71.17;99768.78;4959330;28;20106;-75
2020/12/27 07:46:27;;;;;;;13.07;5.77;;;;;;;-1.64;71.79;99757.88;4957494;28;20098;-75
2020/12/27 07:48:55;;;;;;;14.50;6.55;;;;;;;-1.66;71.96;99775.31;4941683;28;20055;-75
2020/12/27 07:51:24;;;;;;;15.13;7.07;;;;;;;-1.87;72.61;99759.25;4950228;28;20043;-75
2020/12/27 07:53:57;;;;;;;13.07;6.85;;;;;;;-1.81;72.28;99759.56;4945131;28;20789;-76
2020/12/27 07:56:26;;;;;;;13.43;6.75;;;;;;;-1.79;72.39;99753.00;4952917;29;20143;-75
2020/12/27 07:58:55;;;;;;;13.67;7.73;;;;;;;-1.73;73.08;99748.31;4960397;28;20069;-75
2020/12/27 08:01:24;;;;;;;14.35;7.13;;;;;;;-1.69;72.94;99747.66;4975147;28;20050;-76
2020/12/27 08:03:53;;;;;;;;;;;;;;;-1.74;73.23;99746.56;4978589;28;20066;-75
2020/12/27 08:06:25;;;;;;;17.63;6.72;;;;;;;-1.93;72.77;99723.97;4974689;28;19928;-76
2020/12/27 08:08:58;;;;;;;17.17;8.03;;;;;;;-1.75;73.26;99737.34;4975458;28;20043;-75
2020/12/27 08:11:28;;;;;;;18.13;7.72;;;;;;;-1.61;72.87;99748.03;4974641;28;20051;-74
2020/12/27 08:13:58;;;;;;;20.45;7.97;;;;;;;-1.58;73.45;99744.00;4976370;28;20047;-76
2020/12/27 08:16:26;;;;;;;16.55;6.63;;;;;;;-1.26;73.52;99747.16;4976503;28;20051;-76
2020/12/27 08:19:00;;;;;;;17.80;7.82;;;;;;;-1.19;73.36;99754.19;4977072;28;20073;-77
2020/12/27 08:21:29;;;;;;;17.02;8.20;;;;;;;-1.36;73.09;99754.25;4976467;28;20039;-76
2020/12/27 08:24:07;;;;;;;13.02;7.00;;;;;;;-1.38;72.99;99750.84;4970675;28;20116;-77
2020/12/27 08:26:39;;;;;;;15.50;7.43;;;;;;;-1.23;73.15;99747.31;4976044;28;20133;-77
2020/12/27 08:29:09;;;;;;;13.52;6.50;;;;;;;-1.16;72.82;99744.31;4977531;28;20047;-76
2020/12/27 08:31:36;;;;;;;16.50;7.33;;;;;;;-1.01;73.08;99740.84;4958184;28;20046;-77
2020/12/27 08:34:07;;;;;;;15.63;6.60;;;;;;;-0.99;72.61;99725.91;4976038;28;20051;-77
2020/12/27 08:36:39;;;;;;;17.58;7.88;;;;;;;-0.93;72.99;99727.03;4976124;28;20085;-76
2020/12/27 08:39:15;;;;;;;21.67;10.00;;;;;;;-0.94;72.97;99720.34;4974449;28;20114;-76
2020/12/27 08:41:50;;;;;;;28.55;11.85;;;;;;;-0.79;72.88;99707.59;4975101;28;20054;-76
2020/12/27 08:44:25;;;;;;;26.85;11.45;;;;;;;-0.60;72.53;99705.13;4976847;28;20058;-76
2020/12/27 08:46:54;;;;;;;28.02;13.25;;;;;;;-0.40;72.62;99708.47;4976145;28;20101;-76
2020/12/27 08:49:32;;;;;;;25.40;13.27;;;;;;;-0.30;72.26;99706.44;4958415;28;20400;-76
2020/12/27 08:52:07;;;;;;;21.17;10.45;;;;;;;-0.38;72.10;99707.75;4972775;28;20047;-76
2020/12/27 08:54:35;;;;;;;27.17;14.15;;;;;;;-0.20;71.87;99703.53;4974025;28;20043;-78
2020/12/27 08:57:08;;;;;;;23.13;10.65;;;;;;;-0.01;71.99;99701.00;4975345;28;20126;-78
2020/12/27 08:59:36;;;;;;;29.80;12.30;;;;;;;0.15;71.73;99686.53;4974974;28;20054;-76
2020/12/27 09:02:08;;;;;;;18.60;9.02;;;;;;;0.25;72.02;99678.59;4974155;28;20055;-78
2020/12/27 09:04:37;;;;;;;23.60;10.57;;;;;;;0.33;71.38;99683.13;4974944;28;20047;-79
2020/12/27 09:07:09;;;;;;;15.27;7.85;;;;;;;0.48;70.98;99675.34;4943344;28;20485;-79
2020/12/27 09:09:38;;;;;;;21.40;9.65;;;;;;;0.63;70.88;99676.78;4976863;28;20074;-78
2020/12/27 09:12:10;;;;;;;13.77;7.68;;;;;;;0.57;70.41;99663.16;4975529;28;20134;-78
2020/12/27 09:14:38;;;;;;;14.88;8.38;;;;;;;0.79;70.51;99669.84;4959979;28;20134;-75
2020/12/27 09:17:09;;;;;;;17.95;9.93;;;;;;;0.73;69.91;99665.44;4975582;28;20046;-75
2020/12/27 09:19:37;;;;;;;15.02;7.28;;;;;;;0.71;69.96;99667.03;4976401;28;20050;-78
2020/12/27 09:22:06;;;;;;;25.52;12.65;;;;;;;0.99;69.46;99653.81;4976846;28;20059;-77
2020/12/27 09:24:34;;;;;;;15.40;7.93;;;;;;;1.13;69.56;99651.00;4976707;28;20509;-77
2020/12/27 09:27:05;;;;;;;18.23;8.88;;;;;;;1.31;68.75;99656.72;4976713;28;20061;-77
2020/12/27 09:29:35;;;;;;;16.35;8.50;;;;;;;1.72;68.74;99647.22;4976613;28;20059;-76
2020/12/27 09:32:08;;;;;;;18.05;8.77;;;;;;;1.79;68.75;99644.09;4973185;28;20051;-76
2020/12/27 09:34:37;;;;;;;15.13;8.10;;;;;;;2.02;68.83;99643.16;4976568;28;20070;-76
2020/12/27 09:37:10;;;;;;;37.83;19.05;;;;;;;1.93;67.34;99642.88;4974274;28;20488;-76
2020/12/27 09:39:38;;;;;;;14.18;8.20;;;;;;;1.74;67.45;99626.34;4976364;28;20050;-76
2020/12/27 09:42:06;;;;;;;80.55;29.00;;;;;;;2.06;67.75;99624.88;4976472;28;20081;-76
2020/12/27 09:44:34;;;;;;;26.80;11.95;;;;;;;2.17;67.77;99613.47;4976265;28;20063;-76
2020/12/27 09:47:02;;;;;;;43.83;18.27;;;;;;;2.09;67.36;99594.75;4974274;28;20035;-76
2020/12/27 09:49:32;;;;;;;43.00;18.90;;;;;;;2.05;66.56;99603.00;4965349;28;20070;-76
2020/12/27 09:52:05;;;;;;;90.75;29.40;;;;;;;2.15;66.22;99594.09;4975916;28;20086;-76
2020/12/27 09:54:37;;;;;;;22.15;10.23;;;;;;;2.24;66.22;99587.66;4975021;28;20039;-77
2020/12/27 09:57:10;;;;;;;13.40;6.97;;;;;;;2.42;65.52;99585.72;4974723;28;20066;-77
2020/12/27 09:59:39;;;;;;;12.20;6.63;;;;;;;2.67;65.82;99578.06;4972420;28;20043;-75
2020/12/27 10:02:08;;;;;;;15.60;7.18;;;;;;;2.93;64.48;99560.31;4975734;28;20094;-75
2020/12/27 10:04:36;;;;;;;13.30;6.40;;;;;;;2.65;64.04;99519.22;4975830;28;20542;-75
2020/12/27 10:07:04;;;;;;;17.80;7.07;;;;;;;2.85;64.49;99561.75;4973407;28;20094;-77
2020/12/27 10:09:33;;;;;;;11.30;5.93;;;;;;;3.31;64.06;99531.94;4970451;28;20762;-75
2020/12/27 10:12:01;;;;;;;11.43;5.78;;;;;;;3.47;64.24;99531.47;4957773;28;20061;-74
2020/12/27 10:14:31;;;;;;;12.60;6.18;;;;;;;3.68;63.89;99519.38;4975684;28;20082;-74
2020/12/27 10:17:00;;;;;;;10.98;5.70;;;;;;;3.70;63.58;99514.34;4973395;28;20046;-74
2020/12/27 10:19:28;;;;;;;10.18;5.32;;;;;;;3.77;62.98;99512.03;4955919;28;20054;-76
2020/12/27 10:21:56;;;;;;;9.70;5.45;;;;;;;3.98;61.78;99481.38;4974745;28;20054;-75
2020/12/27 10:24:26;;;;;;;15.60;6.57;;;;;;;4.01;61.97;99484.81;4952894;28;20456;-75
2020/12/27 10:26:55;;;;;;;18.60;9.32;;;;;;;3.89;61.79;99476.97;4974482;28;20045;-76
2020/12/27 10:29:24;;;;;;;12.27;6.20;;;;;;;4.07;61.32;99469.81;4974006;28;20038;-76
2020/12/27 10:31:54;;;;;;;8.30;5.00;;;;;;;4.15;61.09;99443.88;4975220;28;20043;-75
2020/12/27 10:34:24;;;;;;;8.15;4.32;;;;;;;4.32;60.51;99447.59;4975214;28;20043;-76
2020/12/27 10:36:53;;;;;;;6.22;3.25;;;;;;;4.18;58.84;99443.91;4975467;28;20250;-75
2020/12/27 10:39:22;;;;;;;6.00;2.80;;;;;;;3.99;57.06;99433.44;4975316;28;20066;-76
2020/12/27 10:41:51;;;;;;;4.88;2.60;;;;;;;3.89;56.32;99426.47;4966738;28;20057;-77
2020/12/27 10:44:19;;;;;;;5.13;2.60;;;;;;;3.91;56.10;99404.66;4962446;28;20083;-76
2020/12/27 10:46:49;;;;;;;6.32;2.63;;;;;;;3.76;56.55;99384.16;4970850;28;20057;-75
2020/12/27 10:49:18;;;;;;;5.75;2.60;;;;;;;3.97;56.26;99382.06;4954633;28;20039;-76
2020/12/27 10:51:47;;;;;;;4.55;2.47;;;;;;;4.04;55.83;99351.06;4963589;28;20632;-75
2020/12/27 10:54:15;;;;;;;4.60;2.55;;;;;;;4.32;54.96;99331.41;4970499;28;20050;-75
2020/12/27 10:56:43;;;;;;;5.00;2.45;;;;;;;4.40;55.17;99339.94;4975306;28;20047;-77
2020/12/27 10:59:14;;;;;;;6.07;2.50;;;;;;;4.43;54.17;99330.78;4979520;28;20489;-75
2020/12/27 11:01:44;;;;;;;6.47;2.67;;;;;;;4.47;53.73;99331.66;4994279;28;20381;-75
2020/12/27 11:04:12;;;;;;;8.00;3.45;;;;;;;4.86;53.74;99312.13;4988378;28;20129;-75
2020/12/27 11:06:41;;;;;;;4.60;2.10;;;;;;;4.81;53.13;99307.81;4974516;28;20062;-75
2020/12/27 11:09:11;;;;;;;7.05;2.83;;;;;;;4.77;53.17;99301.88;4957633;28;20039;-75
2020/12/27 11:11:39;;;;;;;5.10;2.88;;;;;;;5.06;52.56;99295.56;4973937;28;20505;-75
2020/12/27 11:14:08;;;;;;;5.25;2.60;;;;;;;5.31;52.27;99292.56;4956435;28;20042;-75
2020/12/27 11:16:36;;;;;;;4.70;2.42;;;;;;;5.18;51.69;99305.84;4963922;28;20049;-75
2020/12/27 11:19:04;;;;;;;5.05;2.78;;;;;;;4.88;52.24;99305.41;4976649;28;20066;-76
2020/12/27 11:21:31;;;;;;;5.40;2.97;;;;;;;4.87;52.49;99298.63;4956100;28;20042;-74
2020/12/27 11:24:00;;;;;;;5.97;2.88;;;;;;;4.57;52.45;99293.09;4951423;29;20497;-75
2020/12/27 11:26:29;;;;;;;5.65;2.40;;;;;;;4.34;52.83;99284.28;4973792;28;20053;-76
2020/12/27 11:28:56;;;;;;;5.25;2.45;;;;;;;4.33;52.28;99262.38;4976580;28;20568;-73
2020/12/27 11:31:25;;;;;;;5.05;2.45;;;;;;;4.63;51.88;99247.72;4973635;28;20093;-75
2020/12/27 11:36:37;;;;;;;7.10;3.40;;;;;;;5.35;51.47;99233.56;4931975;29;20071;-76
2020/12/27 11:39:06;;;;;;;7.13;3.75;;;;;;;5.12;52.38;99184.38;4925233;29;20043;-76
2020/12/27 11:41:53;;;;;;;7.75;3.13;;;;;;;5.38;52.50;99208.31;4930635;29;20123;-75
2020/12/27 11:44:21;;;;;;;6.93;3.77;;;;;;;6.18;51.25;99200.75;4918175;29;20044;-75
2020/12/27 11:46:49;;;;;;;5.82;3.40;;;;;;;7.95;46.73;99194.97;4933770;29;20048;-76
2020/12/27 11:49:19;;;;;;;;;;;;;;;5.27;49.74;99181.19;4933220;29;20052;-76
2020/12/27 11:51:48;;;;;;;6.70;3.28;;;;;;;7.06;47.32;99165.88;4933829;29;19922;-75
2020/12/27 11:54:16;;;;;;;6.55;3.10;;;;;;;5.26;50.13;99152.53;4933851;29;20051;-75
2020/12/27 11:56:44;;;;;;;8.15;3.80;;;;;;;4.62;51.82;99134.84;4933929;29;20402;-75